Latest Weather Observations for Geraldton Airport

IDW60801

Issued at 10:33 am WST Monday 27 January 2020 (issued every 10 minutes, with the page automatically refreshed every 10 minutes)

About weather observations | Map of weather stations | Latest weather observations for WA | Other Formats
Station Details ID: 008315 Name: GERALDTON AIRPORT Lat: -28.80 Lon: 114.70 Height: 29.7 m
Data from the previous 72 hours. | See also: Recent months at Geraldton Airport
Date/Time
WST
Temp
°C
App
Temp
°C
Dew
Point
°C
Rel
Hum
%
Delta-T
°C
Wind Press
QNH
hPa
Press
MSL
hPa
Rain since
9am
mm
Dir  Spd
km/h
Gust
km/h
Spd
kts
Gust
kts
27/10:30am 35.0 35.0 17.2 34 11.5 SSW 13 20 7 11 1009.5 1009.4 0.0
27/10:00am 34.0 33.8 16.8 35 11.0 S 13 19 7 10 1009.6 1009.5 0.0
27/09:30am 33.3 32.7 16.6 36 10.6 S 15 20 8 11 1009.7 1009.6 0.0
27/09:00am 30.4 30.7 17.8 46 8.1 SSE 13 20 7 11 1009.8 1009.7 0.0
27/08:30am 28.4 29.2 19.9 60 5.6 SSE 15 20 8 11 1010.1 1010.0 0.0
27/08:00am 24.8 26.7 19.8 74 3.2 SE 9 13 5 7 1010.1 1010.0 0.0
27/07:30am 22.1 24.8 19.5 85 1.7 SE 4 7 2 4 1010.0 1009.9 0.0
27/07:00am 20.1 23.3 18.8 92 0.8 CALM 0 0 0 0 1009.8 1009.7 0.0
27/06:30am 17.7 20.0 16.7 94 0.6 CALM 0 0 0 0 1009.7 1009.6 0.0
27/06:00am 16.5 16.7 15.7 95 0.5 NE 9 11 5 6 1009.4 1009.3 0.0
27/05:30am 16.7 18.7 16.1 96 0.4 CALM 0 4 0 2 1009.1 1009.0 0.0
27/05:00am 16.7 17.5 15.9 95 0.5 ESE 6 7 3 4 1009.0 1008.9 0.0
27/04:34am 16.7 18.3 15.9 95 0.5 SE 2 6 1 3 1009.1 1009.0 0.0
27/04:30am 16.8 18.0 16.0 95 0.5 SE 4 9 2 5 1009.1 1009.0 0.0
27/04:15am 17.4 18.3 16.6 95 0.5 ESE 7 9 4 5 1008.9 1008.8 0.0
27/04:05am 17.4 18.6 16.8 96 0.4 ESE 6 7 3 4 1008.9 1008.8 0.0
27/04:00am 17.1 18.1 16.3 95 0.5 ESE 6 9 3 5 1008.9 1008.8 0.0
27/03:40am 16.9 16.8 16.1 95 0.5 SSE 11 13 6 7 1009.0 1008.9 0.0
27/03:30am 17.0 17.4 16.2 95 0.5 SSE 9 11 5 6 1009.0 1008.9 0.0
27/03:00am 17.3 17.7 16.3 94 0.6 SE 9 9 5 5 1009.0 1008.9 0.0
27/02:30am 18.1 19.4 17.0 93 0.7 SE 6 6 3 3 1009.3 1009.2 0.0
27/02:29am 18.2 19.5 17.0 93 0.7 SE 6 6 3 3 1009.3 1009.2 0.0
27/02:00am 19.1 20.6 18.1 94 0.6 ESE 7 9 4 5 1009.5 1009.4 0.0
27/01:48am 19.0 21.7 17.8 93 0.7 CALM 0 4 0 2 1009.7 1009.6 0.0
27/01:30am 19.3 21.5 18.3 94 0.6 E 4 6 2 3 1009.8 1009.7 0.0
27/01:00am 19.2 20.9 18.0 93 0.7 ENE 6 7 3 4 1010.0 1009.9 0.0
27/12:30am 19.4 22.2 17.9 91 0.9 CALM 0 2 0 1 1010.3 1010.2 0.0
27/12:00am 19.9 21.4 18.0 89 1.2 SSE 7 9 4 5 1010.6 1010.5 0.0
 
Date/Time
WST
Temp
°C
App
Temp
°C
Dew
Point
°C
Rel
Hum
%
Delta-T
°C
Wind Press
QNH
hPa
Press
MSL
hPa
Rain since
9am
mm
Dir  Spd
km/h
Gust
km/h
Spd
kts
Gust
kts
26/11:30pm 21.0 22.2 19.1 89 1.2 SSE 11 13 6 7 1010.7 1010.6 0.0
26/11:00pm 21.4 22.6 19.1 87 1.5 SE 11 15 6 8 1010.8 1010.7 0.0
26/10:30pm 21.9 22.1 19.3 85 1.7 SSE 17 20 9 11 1011.0 1010.9 0.0
26/10:00pm 22.1 21.7 18.9 82 2.0 SSE 19 22 10 12 1010.9 1010.8 0.0
26/09:30pm 22.4 22.0 18.8 80 2.3 SSE 19 26 10 14 1010.7 1010.6 0.0
26/09:00pm 22.7 21.6 18.7 78 2.5 S 22 28 12 15 1010.6 1010.5 0.0
26/08:30pm 23.0 21.5 18.5 76 2.8 SSE 24 33 13 18 1010.4 1010.3 0.0
26/08:00pm 23.3 21.0 18.4 74 3.1 S 28 35 15 19 1010.3 1010.2 0.0
26/07:30pm 23.7 21.4 18.4 72 3.3 S 28 37 15 20 1010.1 1010.0 0.0
26/07:00pm 24.6 21.5 18.3 68 4.0 S 32 43 17 23 1009.9 1009.8 0.0
26/06:30pm 26.0 22.8 18.2 62 4.9 S 32 43 17 23 1009.8 1009.7 0.0
26/06:00pm 26.7 21.7 18.0 59 5.5 S 41 50 22 27 1009.7 1009.6 0.0
26/05:30pm 27.6 23.2 17.5 54 6.4 S 37 46 20 25 1009.7 1009.6 0.0
26/05:00pm 28.4 23.6 17.6 52 6.8 S 39 48 21 26 1009.8 1009.7 0.0
26/04:30pm 28.5 24.5 17.7 52 6.8 S 35 44 19 24 1010.1 1010.0 0.0
26/04:00pm 29.6 25.1 17.4 47 7.7 S 37 43 20 23 1010.1 1010.0 0.0
26/03:30pm 30.0 26.0 16.8 45 8.3 S 33 39 18 21 1010.1 1010.0 0.0
26/03:00pm 30.7 27.0 17.0 43 8.7 S 32 37 17 20 1010.2 1010.1 0.0
26/02:30pm 30.8 27.2 17.1 43 8.7 S 32 37 17 20 1010.4 1010.3 0.0
26/02:00pm 32.1 28.8 17.9 42 9.1 S 32 39 17 21 1010.3 1010.2 0.0
26/01:30pm 30.1 27.0 17.5 46 8.0 S 30 39 16 21 1010.4 1010.3 0.0
26/01:00pm 30.4 27.7 18.5 49 7.7 SSW 30 39 16 21 1010.5 1010.4 0.0
26/12:30pm 30.0 28.2 17.8 48 7.8 S 24 32 13 17 1010.6 1010.5 0.0
26/12:00pm 28.9 26.9 18.4 53 6.7 SSW 26 33 14 18 1011.0 1010.9 0.0
26/11:30am 27.8 26.9 18.2 56 6.1 SSW 20 28 11 15 1011.4 1011.3 0.0
26/11:00am 28.4 28.6 19.3 57 5.9 S 17 28 9 15 1011.6 1011.5 0.0
26/10:30am 27.5 27.1 19.3 61 5.3 SSW 20 30 11 16 1011.8 1011.7 0.0
26/10:00am 26.4 26.0 19.0 63 4.8 S 19 28 10 15 1012.0 1011.9 0.0
26/09:30am 25.9 25.3 18.8 65 4.5 S 20 28 11 15 1012.2 1012.1 0.0
26/09:00am 24.8 24.1 18.7 69 3.9 S 20 26 11 14 1012.3 1012.2 0.0
26/08:30am 24.3 23.8 19.1 73 3.3 S 20 28 11 15 1012.4 1012.3 0.0
26/08:09am 23.5 22.8 19.6 79 2.5 SSE 22 30 12 16 1012.5 1012.4 0.0
26/08:00am 23.1 23.0 19.5 80 2.3 SSE 19 30 10 16 1012.5 1012.4 0.0
26/07:30am 20.4 20.1 18.2 87 1.4 SSE 17 20 9 11 1012.6 1012.5 0.0
26/07:06am 19.3 18.9 17.1 87 1.3 SE 15 20 8 11 1012.5 1012.4 0.0
26/07:00am 18.9 18.4 16.9 88 1.2 SE 15 19 8 10 1012.6 1012.5 0.0
26/06:46am 18.7 18.6 17.0 90 1.0 SSE 13 17 7 9 1012.5 1012.4 0.0
26/06:30am 18.2 18.8 16.7 91 0.9 SSE 9 11 5 6 1012.4 1012.3 0.0
26/06:00am 17.1 16.9 15.6 91 0.9 SSE 11 15 6 8 1012.4 1012.3 0.0
26/05:30am 17.0 18.4 15.5 91 0.9 ESE 2 9 1 5 1012.5 1012.4 0.0
26/05:23am 16.5 17.7 14.9 90 0.9 ESE 2 7 1 4 1012.5 1012.4 0.0
26/05:00am 17.0 17.0 15.3 90 1.0 ESE 9 11 5 6 1012.2 1012.1 0.0
26/04:59am 17.0 17.0 15.3 90 1.0 ESE 9 11 5 6 1012.2 1012.1 0.0
26/04:30am 17.4 16.8 15.7 90 1.0 SE 13 17 7 9 1012.2 1012.1 0.0
26/04:01am 17.5 17.5 16.2 92 0.8 SE 11 15 6 8 1012.2 1012.1 0.0
26/04:00am 17.4 17.3 16.1 92 0.8 SE 11 15 6 8 1012.2 1012.1 0.0
26/03:30am 17.5 17.5 16.2 92 0.8 SE 11 15 6 8 1012.1 1012.0 0.0
26/03:00am 17.9 18.3 16.4 91 0.9 SSE 9 11 5 6 1012.1 1012.0 0.0
26/02:30am 18.5 18.8 17.0 91 0.9 SE 11 13 6 7 1012.1 1012.0 0.0
26/02:00am 19.6 19.9 17.9 90 1.0 SE 13 19 7 10 1012.2 1012.1 0.0
26/01:30am 20.3 19.5 18.4 89 1.2 SSE 20 26 11 14 1012.2 1012.1 0.0
26/01:00am 20.4 19.2 18.5 89 1.2 SSE 22 30 12 16 1012.3 1012.2 0.0
26/12:30am 20.6 19.8 18.5 88 1.3 S 20 28 11 15 1012.5 1012.4 0.0
26/12:00am 20.6 20.4 18.5 88 1.3 S 17 20 9 11 1012.6 1012.5 0.0
 
Date/Time
WST
Temp
°C
App
Temp
°C
Dew
Point
°C
Rel
Hum
%
Delta-T
°C
Wind Press
QNH
hPa
Press
MSL
hPa
Rain since
9am
mm
Dir  Spd
km/h
Gust
km/h
Spd
kts
Gust
kts
25/11:30pm 20.7 20.1 18.8 89 1.2 SSE 20 26 11 14 1012.8 1012.7 0.0
25/11:00pm 21.0 20.5 19.1 89 1.2 S 20 28 11 15 1012.7 1012.6 0.0
25/10:30pm 20.8 20.7 18.7 88 1.3 S 17 22 9 12 1012.8 1012.7 0.0
25/10:00pm 21.2 21.2 18.9 87 1.4 SSE 17 20 9 11 1012.7 1012.6 0.0
25/09:30pm 21.5 20.5 18.9 85 1.6 S 22 28 12 15 1012.8 1012.7 0.0
25/09:00pm 21.6 20.0 18.4 82 2.0 S 24 32 13 17 1012.5 1012.4 0.0
25/08:30pm 21.8 19.5 18.4 81 2.1 S 28 33 15 18 1012.4 1012.3 0.0
25/08:00pm 22.0 18.8 18.2 79 2.4 S 32 44 17 24 1012.3 1012.2 0.0
25/07:30pm 22.4 19.3 18.4 78 2.5 SSE 32 39 17 21 1012.0 1011.9 0.0
25/07:00pm 23.3 20.6 18.4 74 3.1 S 30 41 16 22 1011.9 1011.8 0.0
25/06:30pm 24.2 20.4 18.2 69 3.8 SSE 35 44 19 24 1011.8 1011.7 0.0
25/06:00pm 25.3 20.6 17.7 62 4.8 S 39 46 21 25 1011.5 1011.4 0.0
25/05:51pm 25.8 21.1 16.9 58 5.5 S 37 44 20 24 1011.4 1011.3 0.0
25/05:34pm 26.8 22.3 16.4 53 6.4 S 35 43 19 23 1011.4 1011.3 0.0
25/05:30pm 26.8 22.7 16.4 53 6.4 S 33 43 18 23 1011.3 1011.2 0.0
25/05:00pm 27.9 23.4 16.5 50 7.1 S 35 44 19 24 1011.2 1011.1 0.0
25/04:30pm 28.4 22.7 15.3 45 8.0 S 39 44 21 24 1011.0 1010.9 0.0
25/04:00pm 28.0 22.4 16.6 50 7.1 S 41 48 22 26 1011.3 1011.2 0.0
25/03:30pm 28.6 23.9 15.8 45 7.9 S 35 44 19 24 1011.5 1011.4 0.0
25/03:00pm 29.1 24.2 16.3 46 8.0 S 37 46 20 25 1011.7 1011.6 0.0
25/02:30pm 29.3 23.9 16.1 44 8.2 S 39 46 21 25 1011.9 1011.8 0.0
25/02:00pm 29.9 23.8 14.0 37 9.6 S 39 46 21 25 1011.8 1011.7 0.0
25/01:30pm 29.9 25.3 16.0 43 8.6 S 35 41 19 22 1012.0 1011.9 0.0
25/01:00pm 30.2 25.8 16.6 44 8.5 S 35 43 19 23 1012.2 1012.1 0.0
25/12:30pm 29.5 25.7 16.7 46 8.0 S 32 41 17 22 1012.5 1012.4 0.0
25/12:00pm 30.1 26.8 16.1 42 8.7 S 28 37 15 20 1012.7 1012.6 0.0
25/11:30am 29.5 26.9 16.0 44 8.4 S 24 32 13 17 1013.0 1012.9 0.0
25/11:00am 29.0 26.5 16.2 46 7.9 S 24 35 13 19 1013.5 1013.4 0.0
25/10:30am 27.6 24.2 15.9 49 7.2 SSW 28 35 15 19 1013.8 1013.7 0.0
25/10:00am 27.9 26.2 16.2 49 7.2 SSE 20 32 11 17 1013.7 1013.6 0.0
25/09:30am 26.4 24.3 17.2 57 5.7 SSE 24 30 13 16 1013.9 1013.8 0.0
25/09:00am 25.4 22.8 16.8 59 5.3 S 26 33 14 18 1014.3 1014.2 0.0
25/08:30am 25.1 23.2 15.7 56 5.7 SSE 20 28 11 15 1014.3 1014.2 0.0
25/08:00am 22.7 20.2 14.0 58 5.1 SSE 20 24 11 13 1014.4 1014.3 0.0
25/07:30am 21.2 19.4 13.4 61 4.5 SSE 15 19 8 10 1014.3 1014.2 0.0
25/07:00am 18.9 15.9 11.9 64 3.9 SSE 19 22 10 12 1014.0 1013.9 0.0
25/06:30am 17.7 15.9 12.2 70 3.0 SE 13 15 7 8 1013.8 1013.7 0.0
25/06:00am 16.6 14.5 12.4 76 2.3 SSE 15 17 8 9 1013.8 1013.7 0.0
25/05:30am 16.7 15.3 12.3 75 2.4 SE 11 13 6 7 1013.3 1013.2 0.0
25/05:00am 16.8 14.4 12.7 77 2.3 SE 17 19 9 10 1012.9 1012.8 0.0
25/04:30am 16.6 14.5 12.4 76 2.3 SSE 15 17 8 9 1012.9 1012.8 0.0
25/04:00am 15.8 14.8 12.2 79 2.0 ESE 9 11 5 6 1013.2 1013.1 0.0
25/03:30am 16.8 15.5 12.5 76 2.4 SSE 11 13 6 7 1013.1 1013.0 0.0
25/03:00am 17.2 16.0 14.1 82 1.8 S 13 15 7 8 1013.1 1013.0 0.0
25/02:30am 17.8 17.3 14.9 83 1.7 SE 11 15 6 8 1012.9 1012.8 0.0
25/02:00am 18.9 18.4 16.0 83 1.7 SE 13 17 7 9 1013.2 1013.1 0.0
25/01:30am 18.5 17.8 15.4 82 1.8 SSE 13 15 7 8 1013.3 1013.2 0.0
25/01:00am 19.3 19.4 15.6 79 2.2 SE 9 13 5 7 1013.5 1013.4 0.0
25/12:30am 20.3 19.8 15.9 76 2.6 SE 13 17 7 9 1013.8 1013.7 0.0
25/12:00am 21.2 19.8 16.6 75 2.8 SSE 19 24 10 13 1013.9 1013.8 0.0
 
Date/Time
WST
Temp
°C
App
Temp
°C
Dew
Point
°C
Rel
Hum
%
Delta-T
°C
Wind Press
QNH
hPa
Press
MSL
hPa
Rain since
9am
mm
Dir  Spd
km/h
Gust
km/h
Spd
kts
Gust
kts
24/11:30pm 21.7 19.8 16.6 73 3.1 SSE 22 28 12 15 1014.0 1013.9 0.0
24/11:00pm 22.2 18.8 16.7 71 3.4 SSE 30 39 16 21 1014.0 1013.9 0.0
24/10:30pm 22.4 18.1 16.9 71 3.4 S 35 44 19 24 1014.0 1013.9 0.0
24/10:00pm 22.6 17.5 15.7 65 4.1 S 37 46 20 25 1014.0 1013.9 0.0
24/09:30pm 22.7 16.9 16.0 66 4.1 S 41 52 22 28 1013.9 1013.8 0.0
24/09:00pm 22.4 18.4 16.7 70 3.5 SSE 33 43 18 23 1013.9 1013.8 0.0
24/08:30pm 22.5 19.2 17.0 71 3.4 SSE 30 41 16 22 1013.7 1013.6 0.0
24/08:00pm 22.7 19.7 16.9 70 3.6 SSE 28 35 15 19 1013.3 1013.2 0.0
24/07:30pm 23.1 19.5 17.1 69 3.7 SSE 32 41 17 22 1013.1 1013.0 0.0
24/07:00pm 24.0 20.2 17.3 66 4.2 S 33 43 18 23 1012.8 1012.7 0.0
24/06:30pm 25.0 20.4 17.2 62 4.8 S 37 46 20 25 1012.6 1012.5 0.0
24/06:00pm 25.8 20.9 17.4 59 5.3 S 39 46 21 25 1012.8 1012.7 0.0
24/05:30pm 26.4 21.1 17.2 57 5.7 S 41 48 22 26 1012.7 1012.6 0.0
24/05:00pm 26.9 21.9 17.1 55 6.1 S 39 50 21 27 1012.6 1012.5 0.0
24/04:30pm 27.6 22.4 16.6 51 6.8 S 39 44 21 24 1012.7 1012.6 0.0
24/04:00pm 28.1 23.0 16.7 50 7.1 S 39 48 21 26 1012.8 1012.7 0.0
24/03:30pm 28.8 23.5 16.4 47 7.7 S 39 46 21 25 1012.7 1012.6 0.0
24/03:00pm 31.5 26.2 14.2 35 10.5 S 35 44 19 24 1012.6 1012.5 0.0
24/02:30pm 30.6 24.0 13.8 35 10.1 S 41 46 22 25 1012.8 1012.7 0.0
24/02:00pm 31.5 25.6 13.7 33 10.7 S 37 46 20 25 1012.9 1012.8 0.0
24/01:30pm 30.9 25.6 14.1 36 10.2 SSW 35 44 19 24 1013.2 1013.1 0.0
24/01:00pm 32.1 25.8 12.3 29 11.7 S 37 44 20 24 1013.2 1013.1 0.0
24/12:30pm 32.1 27.0 13.8 33 11.1 SSW 33 41 18 22 1013.4 1013.3 0.0
24/12:00pm 32.7 27.5 13.4 31 11.6 SSW 33 39 18 21 1013.6 1013.5 0.0
24/11:30am 33.0 29.0 13.1 30 12.0 SSW 26 33 14 18 1013.8 1013.7 0.0
24/11:00am 30.8 27.9 15.2 38 9.6 SSW 24 32 13 17 1014.2 1014.1 0.0

Other formats

Comma delimited format used in spreadsheet applications
http://www.bom.gov.au/fwo/IDW60801/IDW60801.94403.axf

JavaScript Object Notation format (JSON) in row-major order
http://www.bom.gov.au/fwo/IDW60801/IDW60801.94403.json

Data quality

Most of these data are generated automatically and are frequently updated. Quality checks on data are not normally performed. It is possible for incorrect values to appear. Refer to information at About Latest Weather Observations and please check the disclaimer before using these data.